Time;durP1;ratioP1;P1;durP2;ratioP2;P2;SDS_P1;SDS_P2;PMS_P1;PMS_P2;Temp;Humidity;BMP_temperature;BMP_pressure;BME280_temperature;BME280_humidity;BME280_pressure;Samples;Min_cycle;Max_cycle;Signal;HPM_P1;HPM_P2
2022/02/06 00:01:52;;;;;;;;;;;20.60;34.70;;;;;;476141;250;1348;-39
2022/02/06 00:03:57;;;;;;;;;;;20.60;34.70;;;;;;475904;250;1210;-39
2022/02/06 00:05:56;;;;;;;;;;;20.60;34.70;;;;;;475825;250;1996;-39
2022/02/06 00:07:57;;;;;;;;;;;20.60;34.70;;;;;;476045;250;2424;-39
2022/02/06 00:09:58;;;;;;;;;;;20.60;34.70;;;;;;475692;251;1035;-39
2022/02/06 00:11:59;;;;;;;;;;;20.60;34.70;;;;;;475631;251;2208;-39
2022/02/06 00:14:01;;;;;;;;;;;20.60;34.60;;;;;;475890;250;1080;-39
2022/02/06 00:16:02;;;;;;;;;;;20.60;34.60;;;;;;475751;250;1200;-39
2022/02/06 00:18:03;;;;;;;;;;;20.60;34.60;;;;;;476038;250;1142;-39
2022/02/06 00:20:05;;;;;;;;;;;20.70;34.60;;;;;;475982;250;1114;-39
2022/02/06 00:22:08;;;;;;;;;;;20.90;34.30;;;;;;475916;250;1277;-39
2022/02/06 00:24:12;;;;;;;;;;;21.00;33.90;;;;;;475716;250;2252;-39
2022/02/06 00:26:16;;;;;;;;;;;21.20;33.70;;;;;;475854;247;1334;-39
2022/02/06 00:28:19;;;;;;;;;;;21.30;33.50;;;;;;475736;250;2007;-39
2022/02/06 00:30:24;;;;;;;;;;;21.40;33.30;;;;;;475647;250;2123;-39
2022/02/06 00:32:29;;;;;;;;;;;21.50;33.20;;;;;;475183;250;2333;-39
2022/02/06 00:34:47;;;;;;;;;;;21.50;33.10;;;;;;475728;250;2334;-39
2022/02/06 00:39:06;;;;;;;;;;;21.70;32.90;;;;;;475989;250;1080;-39
2022/02/06 00:41:14;;;;;;;;;;;21.70;32.80;;;;;;475977;250;1331;-39
2022/02/06 00:43:13;;;;;;;;;;;21.80;32.80;;;;;;475674;250;2787;-39
2022/02/06 00:45:15;;;;;;;;;;;21.80;32.70;;;;;;475765;250;1270;-39
2022/02/06 00:47:16;;;;;;;;;;;21.80;32.60;;;;;;475918;250;1565;-39
2022/02/06 00:49:25;;;;;;;;;;;21.90;32.60;;;;;;475750;251;1177;-39
2022/02/06 00:51:27;;;;;;;;;;;21.90;32.60;;;;;;475476;250;2217;-39
2022/02/06 00:53:20;;;;;;;;;;;21.90;32.50;;;;;;475475;250;1331;-39
2022/02/06 00:55:21;;;;;;;;;;;21.90;32.50;;;;;;475769;251;1117;-39
2022/02/06 00:57:24;;;;;;;;;;;22.00;32.50;;;;;;475931;250;1221;-39
2022/02/06 00:59:24;;;;;;;;;;;22.00;32.50;;;;;;476156;250;2001;-39
2022/02/06 01:01:25;;;;;;;;;;;22.00;32.40;;;;;;475830;250;1395;-39
2022/02/06 01:03:27;;;;;;;;;;;22.00;32.40;;;;;;475735;251;1083;-39
2022/02/06 01:05:28;;;;;;;;;;;22.00;32.40;;;;;;475833;250;1292;-39
2022/02/06 01:07:29;;;;;;;;;;;22.00;32.30;;;;;;475715;251;1216;-39
2022/02/06 01:09:31;;;;;;;;;;;22.10;32.30;;;;;;476214;250;1067;-39
2022/02/06 01:11:34;;;;;;;;;;;22.10;32.20;;;;;;475954;246;2129;-39
2022/02/06 01:13:42;;;;;;;;;;;22.20;32.20;;;;;;476021;250;2456;-39
2022/02/06 01:15:35;;;;;;;;;;;22.20;32.20;;;;;;475213;250;2336;-39
2022/02/06 01:17:40;;;;;;;;;;;22.20;32.10;;;;;;475687;251;1255;-39
2022/02/06 01:19:46;;;;;;;;;;;22.20;32.10;;;;;;475495;251;1851;-39
2022/02/06 01:21:48;;;;;;;;;;;22.20;32.10;;;;;;475602;246;2269;-39
2022/02/06 01:23:53;;;;;;;;;;;22.30;32.10;;;;;;475491;250;1372;-40
2022/02/06 01:25:54;;;;;;;;;;;22.30;32.20;;;;;;475461;250;2180;-39
2022/02/06 01:27:55;;;;;;;;;;;22.30;32.10;;;;;;475424;250;2057;-39
2022/02/06 01:29:56;;;;;;;;;;;22.30;32.10;;;;;;475587;250;2091;-39
2022/02/06 01:31:57;;;;;;;;;;;22.30;32.00;;;;;;475412;250;2153;-39
2022/02/06 01:34:00;;;;;;;;;;;22.30;32.10;;;;;;475560;250;2133;-39
2022/02/06 01:36:03;;;;;;;;;;;22.30;32.00;;;;;;475445;250;2132;-39
2022/02/06 01:38:08;;;;;;;;;;;22.40;32.00;;;;;;475266;250;2529;-39
2022/02/06 01:40:07;;;;;;;;;;;22.40;32.00;;;;;;475176;250;2181;-39
2022/02/06 01:42:05;;;;;;;;;;;22.40;32.00;;;;;;475447;251;2320;-39
2022/02/06 01:44:10;;;;;;;;;;;22.30;31.90;;;;;;475709;250;2260;-39
2022/02/06 01:46:25;;;;;;;;;;;22.40;32.00;;;;;;475594;250;2103;-40
2022/02/06 02:02:50;;;;;;;;;;;22.50;31.90;;;;;;475707;250;1279;-39
2022/02/06 02:04:50;;;;;;;;;;;22.50;31.90;;;;;;475465;250;1906;-39
2022/02/06 02:06:59;;;;;;;;;;;22.50;31.90;;;;;;475497;250;2480;-39
2022/02/06 02:11:38;;;;;;;;;;;22.50;31.80;;;;;;475457;251;1357;-40
2022/02/06 02:13:47;;;;;;;;;;;22.60;31.80;;;;;;475354;250;2196;-39
2022/02/06 02:18:17;;;;;;;;;;;22.60;31.80;;;;;;475785;250;1231;-39
2022/02/06 02:27:36;;;;;;;;;;;22.60;31.80;;;;;;460890;249;1487;-39
2022/02/06 02:44:02;;;;;;;;;;;22.60;31.80;;;;;;476033;250;1108;-39
2022/02/06 02:45:52;;;;;;;;;;;22.60;31.70;;;;;;474839;250;1861;-39
2022/02/06 02:47:53;;;;;;;;;;;22.70;31.70;;;;;;475500;251;2131;-39
2022/02/06 02:49:54;;;;;;;;;;;22.70;31.70;;;;;;475675;250;1455;-39
2022/02/06 02:51:59;;;;;;;;;;;22.70;31.60;;;;;;475599;250;2452;-39
2022/02/06 02:53:58;;;;;;;;;;;22.70;31.60;;;;;;475402;250;2327;-39
2022/02/06 02:56:08;;;;;;;;;;;22.70;31.60;;;;;;475877;250;2333;-39
2022/02/06 02:58:17;;;;;;;;;;;22.70;31.60;;;;;;475590;250;1467;-39
2022/02/06 03:00:06;;;;;;;;;;;22.70;31.60;;;;;;474955;250;2319;-39
2022/02/06 03:02:06;;;;;;;;;;;22.70;31.60;;;;;;475468;250;2267;-39
2022/02/06 03:04:06;;;;;;;;;;;22.80;31.60;;;;;;475674;250;2320;-39
2022/02/06 03:06:07;;;;;;;;;;;22.70;31.60;;;;;;476098;250;1174;-39
2022/02/06 03:08:09;;;;;;;;;;;22.80;31.60;;;;;;475809;250;1230;-39
2022/02/06 03:10:10;;;;;;;;;;;22.80;31.60;;;;;;476129;250;2461;-39
2022/02/06 03:12:13;;;;;;;;;;;22.80;31.60;;;;;;475815;250;2184;-39
2022/02/06 03:14:16;;;;;;;;;;;22.80;31.60;;;;;;475911;250;2105;-39
2022/02/06 03:16:22;;;;;;;;;;;22.80;31.60;;;;;;475459;247;2364;-39
2022/02/06 03:18:22;;;;;;;;;;;22.80;31.50;;;;;;475557;250;1820;-39
2022/02/06 03:20:21;;;;;;;;;;;22.80;31.50;;;;;;476085;250;2365;-39
2022/02/06 03:22:31;;;;;;;;;;;22.80;31.50;;;;;;475774;250;1194;-39
2022/02/06 03:24:26;;;;;;;;;;;22.80;31.50;;;;;;475641;250;2127;-39
2022/02/06 03:26:25;;;;;;;;;;;22.80;31.50;;;;;;475557;250;1863;-40
2022/02/06 03:28:27;;;;;;;;;;;22.80;31.50;;;;;;475770;251;1101;-40
2022/02/06 03:30:29;;;;;;;;;;;22.80;31.50;;;;;;475872;250;1130;-39
2022/02/06 03:32:29;;;;;;;;;;;22.80;31.50;;;;;;475940;250;2305;-39
2022/02/06 03:34:31;;;;;;;;;;;22.80;31.50;;;;;;476100;250;1295;-39
2022/02/06 03:36:32;;;;;;;;;;;22.90;31.60;;;;;;476029;247;1396;-39
2022/02/06 03:38:33;;;;;;;;;;;22.80;31.50;;;;;;475748;251;1244;-39
2022/02/06 03:40:40;;;;;;;;;;;22.80;31.50;;;;;;475777;250;1414;-39
2022/02/06 03:42:45;;;;;;;;;;;22.90;31.60;;;;;;475452;250;2387;-39
2022/02/06 03:44:42;;;;;;;;;;;22.90;31.50;;;;;;475251;250;2460;-39
2022/02/06 03:46:50;;;;;;;;;;;22.90;31.60;;;;;;475447;250;2556;-39
2022/02/06 03:48:47;;;;;;;;;;;22.90;31.60;;;;;;475202;250;2219;-39
2022/02/06 03:50:50;;;;;;;;;;;22.90;31.60;;;;;;475562;250;2274;-39
2022/02/06 03:52:51;;;;;;;;;;;22.90;31.60;;;;;;475953;250;2191;-39
2022/02/06 03:54:51;;;;;;;;;;;22.90;31.60;;;;;;475672;251;2332;-39
2022/02/06 03:56:53;;;;;;;;;;;22.90;31.60;;;;;;476084;250;1203;-39
2022/02/06 03:58:54;;;;;;;;;;;22.90;31.60;;;;;;476010;250;1954;-39
2022/02/06 04:00:55;;;;;;;;;;;22.90;31.60;;;;;;476062;250;1164;-39
2022/02/06 04:02:57;;;;;;;;;;;22.90;31.60;;;;;;476095;250;1206;-39
2022/02/06 04:04:58;;;;;;;;;;;22.90;31.60;;;;;;476200;250;1075;-39
2022/02/06 04:07:05;;;;;;;;;;;22.90;31.50;;;;;;475967;250;1363;-39
2022/02/06 04:09:08;;;;;;;;;;;22.90;31.60;;;;;;475698;250;2301;-39
2022/02/06 04:11:05;;;;;;;;;;;22.90;31.50;;;;;;475260;250;1562;-39
2022/02/06 04:13:05;;;;;;;;;;;22.90;31.50;;;;;;475499;250;2870;-39
2022/02/06 04:15:08;;;;;;;;;;;22.90;31.50;;;;;;476127;250;2228;-39
2022/02/06 04:17:18;;;;;;;;;;;23.00;31.50;;;;;;475521;250;2107;-39
2022/02/06 04:19:18;;;;;;;;;;;23.00;31.50;;;;;;475052;250;2216;-39
2022/02/06 04:21:10;;;;;;;;;;;23.00;31.50;;;;;;475122;250;2150;-39
2022/02/06 04:23:13;;;;;;;;;;;23.00;31.50;;;;;;475900;250;1207;-39
2022/02/06 04:25:13;;;;;;;;;;;23.00;31.50;;;;;;475650;251;2253;-39
2022/02/06 04:27:14;;;;;;;;;;;23.00;31.50;;;;;;475682;251;1380;-39
2022/02/06 04:29:16;;;;;;;;;;;23.00;31.50;;;;;;475753;251;1198;-40
2022/02/06 04:31:17;;;;;;;;;;;23.00;31.50;;;;;;475939;250;1442;-40
2022/02/06 04:33:19;;;;;;;;;;;23.00;31.50;;;;;;475919;250;2133;-39
2022/02/06 04:35:20;;;;;;;;;;;23.00;31.40;;;;;;476053;250;2019;-39
2022/02/06 04:37:28;;;;;;;;;;;23.00;31.40;;;;;;475932;250;2422;-39
2022/02/06 04:39:49;;;;;;;;;;;23.00;31.50;;;;;;475627;250;2038;-39
2022/02/06 04:41:48;;;;;;;;;;;23.00;31.50;;;;;;474590;250;2281;-39
2022/02/06 04:44:06;;;;;;;;;;;23.00;31.40;;;;;;474999;250;2719;-40
2022/02/06 04:46:23;;;;;;;;;;;23.00;31.40;;;;;;474688;250;2244;-39
2022/02/06 04:48:47;;;;;;;;;;;23.00;31.50;;;;;;475078;250;2091;-40
2022/02/06 05:12:33;;;;;;;;;;;23.00;31.30;;;;;;453555;263;1472;-39
2022/02/06 05:16:39;;;;;;;;;;;23.00;31.30;;;;;;453938;262;1306;-39
2022/02/06 05:19:05;;;;;;;;;;;23.10;31.40;;;;;;453639;263;2192;-39
2022/02/06 05:23:21;;;;;;;;;;;23.10;31.30;;;;;;450235;263;1750;-39
2022/02/06 05:30:12;;;;;;;;;;;23.10;31.30;;;;;;473485;251;1213;-39
2022/02/06 05:32:20;;;;;;;;;;;23.10;31.30;;;;;;474390;250;2235;-39
2022/02/06 05:34:16;;;;;;;;;;;23.10;31.30;;;;;;474231;251;2412;-39
2022/02/06 05:36:18;;;;;;;;;;;23.10;31.30;;;;;;474708;251;1222;-39
2022/02/06 05:38:18;;;;;;;;;;;23.10;31.30;;;;;;474473;251;2184;-39
2022/02/06 05:40:20;;;;;;;;;;;23.10;31.30;;;;;;474935;251;1120;-39
2022/02/06 05:42:21;;;;;;;;;;;23.10;31.30;;;;;;474871;251;1196;-39
2022/02/06 05:44:22;;;;;;;;;;;23.10;31.30;;;;;;474684;251;1095;-39
2022/02/06 05:46:24;;;;;;;;;;;23.10;31.30;;;;;;474813;251;1204;-39
2022/02/06 05:48:25;;;;;;;;;;;23.20;31.30;;;;;;474934;251;1184;-39
2022/02/06 05:50:27;;;;;;;;;;;23.10;31.20;;;;;;474532;251;1210;-39
2022/02/06 05:52:27;;;;;;;;;;;23.10;31.20;;;;;;474567;251;1523;-39
2022/02/06 05:54:29;;;;;;;;;;;23.10;31.20;;;;;;474962;251;2200;-40
2022/02/06 05:56:30;;;;;;;;;;;23.10;31.20;;;;;;474482;251;1240;-39
2022/02/06 05:58:31;;;;;;;;;;;23.10;31.40;;;;;;474488;251;1263;-39
2022/02/06 06:00:33;;;;;;;;;;;23.10;31.40;;;;;;474504;251;1212;-40
2022/02/06 06:02:34;;;;;;;;;;;22.90;31.50;;;;;;474470;251;1439;-39
2022/02/06 06:04:35;;;;;;;;;;;22.70;31.90;;;;;;474704;251;1275;-39
2022/02/06 06:06:37;;;;;;;;;;;22.50;32.20;;;;;;474951;251;1332;-39
2022/02/06 06:08:38;;;;;;;;;;;22.40;32.40;;;;;;474938;251;1269;-39
2022/02/06 06:10:39;;;;;;;;;;;22.30;32.70;;;;;;474492;251;1118;-39
2022/02/06 06:12:41;;;;;;;;;;;22.20;32.70;;;;;;474852;251;1187;-40
2022/02/06 06:14:44;;;;;;;;;;;22.20;32.80;;;;;;474965;251;2205;-39
2022/02/06 06:16:43;;;;;;;;;;;22.10;32.90;;;;;;474359;251;2183;-39
2022/02/06 06:18:45;;;;;;;;;;;22.10;33.10;;;;;;474486;251;1081;-39
2022/02/06 06:20:47;;;;;;;;;;;22.00;33.00;;;;;;470564;251;1174;-39
2022/02/06 06:22:51;;;;;;;;;;;22.00;33.10;;;;;;468712;254;2412;-39
2022/02/06 06:24:54;;;;;;;;;;;22.00;33.20;;;;;;468187;254;1801;-39
2022/02/06 06:26:51;;;;;;;;;;;21.90;33.20;;;;;;468467;254;2129;-39
2022/02/06 06:28:52;;;;;;;;;;;21.90;33.30;;;;;;468710;254;1074;-39
2022/02/06 06:30:55;;;;;;;;;;;21.90;33.30;;;;;;468530;254;1207;-39
2022/02/06 06:32:56;;;;;;;;;;;21.80;33.30;;;;;;468300;254;2525;-39
2022/02/06 06:34:57;;;;;;;;;;;21.80;33.40;;;;;;468687;254;2116;-39
2022/02/06 06:36:58;;;;;;;;;;;21.80;33.40;;;;;;468586;254;1419;-39
2022/02/06 06:39:00;;;;;;;;;;;21.70;33.40;;;;;;468690;254;1247;-39
2022/02/06 06:41:01;;;;;;;;;;;21.70;33.40;;;;;;468326;254;2255;-39
2022/02/06 06:43:02;;;;;;;;;;;21.70;33.50;;;;;;468735;254;1221;-39
2022/02/06 06:45:03;;;;;;;;;;;21.70;33.50;;;;;;468347;254;1086;-39
2022/02/06 06:47:05;;;;;;;;;;;21.70;33.50;;;;;;468683;254;1245;-39
2022/02/06 06:49:06;;;;;;;;;;;21.70;33.50;;;;;;468570;254;1119;-39
2022/02/06 06:51:08;;;;;;;;;;;21.70;33.50;;;;;;468376;254;1260;-39
2022/02/06 06:53:11;;;;;;;;;;;21.70;33.50;;;;;;468321;254;2100;-39
2022/02/06 06:55:10;;;;;;;;;;;21.60;33.50;;;;;;468659;254;2397;-39
2022/02/06 06:57:17;;;;;;;;;;;21.60;33.50;;;;;;468377;254;1195;-39
2022/02/06 06:59:27;;;;;;;;;;;21.60;33.50;;;;;;468493;254;1368;-39
2022/02/06 07:01:42;;;;;;;;;;;21.60;33.50;;;;;;467572;254;1820;-39
2022/02/06 07:03:22;;;;;;;;;;;21.60;33.60;;;;;;467626;254;2052;-39
2022/02/06 07:05:24;;;;;;;;;;;21.60;33.70;;;;;;468495;254;1215;-39
2022/02/06 07:07:25;;;;;;;;;;;21.60;33.60;;;;;;468718;254;1535;-39
2022/02/06 07:09:26;;;;;;;;;;;21.60;33.70;;;;;;468323;254;1341;-39
2022/02/06 07:11:28;;;;;;;;;;;21.60;33.60;;;;;;468276;254;1158;-39
2022/02/06 07:13:29;;;;;;;;;;;21.50;33.60;;;;;;468530;254;2133;-39
2022/02/06 07:15:30;;;;;;;;;;;21.50;33.60;;;;;;468741;254;1225;-39
2022/02/06 07:17:31;;;;;;;;;;;21.50;33.60;;;;;;468526;254;1248;-39
2022/02/06 07:19:33;;;;;;;;;;;21.50;33.60;;;;;;468750;254;1067;-39
2022/02/06 07:21:38;;;;;;;;;;;21.50;33.60;;;;;;468356;254;1221;-39
2022/02/06 07:23:35;;;;;;;;;;;21.50;33.60;;;;;;468282;254;1968;-39
2022/02/06 07:25:38;;;;;;;;;;;21.50;33.70;;;;;;468774;254;1068;-39
2022/02/06 07:27:41;;;;;;;;;;;21.40;33.70;;;;;;468363;254;2544;-39
2022/02/06 07:29:39;;;;;;;;;;;21.50;33.70;;;;;;468199;255;2487;-39
2022/02/06 07:31:42;;;;;;;;;;;21.50;33.70;;;;;;468735;254;1368;-39
2022/02/06 07:33:42;;;;;;;;;;;21.40;33.70;;;;;;468387;254;2445;-39
2022/02/06 07:35:43;;;;;;;;;;;21.40;33.70;;;;;;468265;254;1298;-39
2022/02/06 07:37:45;;;;;;;;;;;21.50;33.70;;;;;;468681;254;1396;-39
2022/02/06 07:39:46;;;;;;;;;;;21.40;33.70;;;;;;468369;254;1239;-39
2022/02/06 07:41:47;;;;;;;;;;;21.40;33.70;;;;;;468292;254;1589;-39
2022/02/06 07:43:49;;;;;;;;;;;21.40;33.70;;;;;;468345;254;1312;-39
2022/02/06 07:45:50;;;;;;;;;;;21.40;33.70;;;;;;468713;254;1244;-39
2022/02/06 07:47:51;;;;;;;;;;;21.40;33.70;;;;;;468604;254;2342;-39
2022/02/06 07:49:53;;;;;;;;;;;21.40;33.70;;;;;;468688;254;1201;-39
2022/02/06 07:51:54;;;;;;;;;;;21.40;33.80;;;;;;468323;254;1256;-39
2022/02/06 07:53:55;;;;;;;;;;;21.40;33.70;;;;;;468604;254;2140;-39
2022/02/06 07:55:56;;;;;;;;;;;21.40;33.70;;;;;;468752;250;1068;-39
2022/02/06 07:57:58;;;;;;;;;;;21.40;33.70;;;;;;468560;254;1174;-39
2022/02/06 07:59:59;;;;;;;;;;;21.40;33.70;;;;;;468818;254;1033;-39
2022/02/06 08:02:00;;;;;;;;;;;21.40;33.70;;;;;;468742;254;1337;-39
2022/02/06 08:04:02;;;;;;;;;;;21.40;33.80;;;;;;468756;254;1031;-39
2022/02/06 08:06:03;;;;;;;;;;;21.40;33.80;;;;;;468622;254;1244;-39
2022/02/06 08:08:11;;;;;;;;;;;21.40;33.70;;;;;;468670;254;1056;-39
2022/02/06 08:10:06;;;;;;;;;;;21.40;33.70;;;;;;468022;254;1997;-39
2022/02/06 08:12:07;;;;;;;;;;;21.40;33.80;;;;;;468372;254;1363;-39
2022/02/06 08:14:09;;;;;;;;;;;21.40;33.80;;;;;;468313;254;2184;-39
2022/02/06 08:16:10;;;;;;;;;;;21.40;33.80;;;;;;468712;254;1298;-39
2022/02/06 08:18:11;;;;;;;;;;;21.40;33.80;;;;;;468746;254;1354;-39
2022/02/06 08:20:13;;;;;;;;;;;21.30;33.80;;;;;;468775;254;1091;-39
2022/02/06 08:22:14;;;;;;;;;;;21.30;33.70;;;;;;468383;254;1320;-39
2022/02/06 08:24:15;;;;;;;;;;;21.30;33.80;;;;;;468554;254;1359;-39
2022/02/06 08:26:17;;;;;;;;;;;21.30;33.70;;;;;;468619;254;1353;-39
2022/02/06 08:28:18;;;;;;;;;;;21.30;33.70;;;;;;468314;254;1312;-39
2022/02/06 08:30:19;;;;;;;;;;;21.30;33.70;;;;;;468645;254;1109;-39
2022/02/06 08:32:21;;;;;;;;;;;21.30;33.60;;;;;;468342;251;1348;-39
2022/02/06 08:34:22;;;;;;;;;;;21.40;33.70;;;;;;468328;254;2137;-39
2022/02/06 08:36:23;;;;;;;;;;;21.30;33.60;;;;;;468634;254;1281;-39
2022/02/06 08:38:24;;;;;;;;;;;21.30;33.60;;;;;;468521;254;1214;-39
2022/02/06 08:40:26;;;;;;;;;;;21.40;33.60;;;;;;468719;254;1228;-39
2022/02/06 08:42:27;;;;;;;;;;;21.40;33.60;;;;;;468451;254;1240;-39
2022/02/06 08:44:29;;;;;;;;;;;21.40;33.60;;;;;;468499;254;1241;-39
2022/02/06 08:46:31;;;;;;;;;;;21.40;33.60;;;;;;468248;254;1382;-39
2022/02/06 08:48:32;;;;;;;;;;;21.40;33.60;;;;;;468275;254;1226;-39
2022/02/06 08:50:34;;;;;;;;;;;21.40;33.60;;;;;;468484;254;1062;-39
2022/02/06 08:52:35;;;;;;;;;;;21.40;33.60;;;;;;468308;254;1224;-39
2022/02/06 08:54:38;;;;;;;;;;;21.40;33.50;;;;;;468724;254;2136;-39
2022/02/06 08:56:39;;;;;;;;;;;21.40;33.60;;;;;;468592;254;2320;-39
2022/02/06 08:58:40;;;;;;;;;;;21.30;33.50;;;;;;468673;254;1950;-39
2022/02/06 09:00:41;;;;;;;;;;;21.30;33.50;;;;;;468708;254;1074;-39
2022/02/06 09:02:42;;;;;;;;;;;21.40;33.50;;;;;;468675;254;1257;-39
2022/02/06 09:04:44;;;;;;;;;;;21.30;33.50;;;;;;468439;254;1088;-39
2022/02/06 09:06:45;;;;;;;;;;;21.30;33.50;;;;;;468465;254;1395;-39
2022/02/06 09:08:53;;;;;;;;;;;21.40;33.60;;;;;;468727;254;1077;-39
2022/02/06 09:10:48;;;;;;;;;;;21.30;33.40;;;;;;467992;254;1522;-39
2022/02/06 09:12:53;;;;;;;;;;;21.30;33.50;;;;;;468318;254;1349;-39
2022/02/06 09:14:51;;;;;;;;;;;21.30;33.50;;;;;;468112;254;2126;-39
2022/02/06 09:16:52;;;;;;;;;;;21.30;33.50;;;;;;468303;254;1199;-39
2022/02/06 09:18:53;;;;;;;;;;;21.30;33.50;;;;;;468726;254;1036;-39
2022/02/06 09:20:55;;;;;;;;;;;21.30;33.50;;;;;;468708;254;1409;-39
2022/02/06 09:22:56;;;;;;;;;;;21.30;33.50;;;;;;468400;254;1243;-39
2022/02/06 09:24:57;;;;;;;;;;;21.30;33.50;;;;;;468725;254;1073;-39
2022/02/06 09:26:58;;;;;;;;;;;21.30;33.40;;;;;;468429;254;1190;-39
2022/02/06 09:29:00;;;;;;;;;;;21.30;33.40;;;;;;468690;254;1229;-39
2022/02/06 09:31:01;;;;;;;;;;;21.30;33.50;;;;;;468336;254;1212;-39
2022/02/06 09:37:04;;;;;;;;;;;21.30;33.40;;;;;;468403;254;1469;-39
2022/02/06 09:39:05;;;;;;;;;;;21.30;33.40;;;;;;468774;254;1283;-39
2022/02/06 09:41:06;;;;;;;;;;;21.30;33.40;;;;;;468417;254;1169;-39
2022/02/06 09:43:08;;;;;;;;;;;21.30;33.40;;;;;;468310;254;1136;-39
2022/02/06 09:45:09;;;;;;;;;;;21.30;33.40;;;;;;468556;254;1056;-39
2022/02/06 09:47:10;;;;;;;;;;;21.30;33.40;;;;;;468459;254;1185;-39
2022/02/06 09:49:12;;;;;;;;;;;21.30;33.40;;;;;;468498;254;1038;-39
2022/02/06 09:51:13;;;;;;;;;;;21.30;33.30;;;;;;468273;254;1243;-39
2022/02/06 09:53:14;;;;;;;;;;;21.30;33.30;;;;;;468484;254;1245;-39
2022/02/06 09:55:18;;;;;;;;;;;21.40;33.40;;;;;;468729;254;2140;-39
2022/02/06 09:57:24;;;;;;;;;;;21.40;33.30;;;;;;468158;254;2187;-39
2022/02/06 09:59:20;;;;;;;;;;;21.30;33.30;;;;;;467992;254;1990;-39
2022/02/06 10:01:22;;;;;;;;;;;21.30;33.30;;;;;;468216;254;2293;-39
2022/02/06 10:03:22;;;;;;;;;;;21.30;33.40;;;;;;468332;254;2065;-39
2022/02/06 10:05:23;;;;;;;;;;;21.30;33.30;;;;;;468773;254;1056;-39
2022/02/06 10:07:25;;;;;;;;;;;21.30;33.30;;;;;;468439;254;1286;-39
2022/02/06 10:09:25;;;;;;;;;;;21.30;33.20;;;;;;468391;254;2242;-39
2022/02/06 10:11:27;;;;;;;;;;;21.30;33.30;;;;;;468273;254;1618;-39
2022/02/06 10:13:28;;;;;;;;;;;21.30;33.30;;;;;;468758;254;1036;-39
2022/02/06 10:15:29;;;;;;;;;;;21.30;33.20;;;;;;468333;254;2200;-39
2022/02/06 10:17:32;;;;;;;;;;;21.30;33.20;;;;;;468308;254;1361;-39
2022/02/06 10:19:34;;;;;;;;;;;21.40;33.30;;;;;;468234;254;2173;-39
2022/02/06 10:21:35;;;;;;;;;;;21.30;33.20;;;;;;468174;251;2447;-39
2022/02/06 10:23:39;;;;;;;;;;;21.30;33.30;;;;;;472593;251;2327;-39
2022/02/06 10:25:36;;;;;;;;;;;21.30;33.30;;;;;;475514;250;2269;-39
2022/02/06 10:27:37;;;;;;;;;;;21.30;33.30;;;;;;475697;250;1504;-39
2022/02/06 10:29:41;;;;;;;;;;;21.30;33.30;;;;;;475783;251;1073;-39
2022/02/06 10:31:40;;;;;;;;;;;21.30;33.30;;;;;;475718;250;2222;-39
2022/02/06 10:33:41;;;;;;;;;;;21.30;33.20;;;;;;476166;250;1104;-39
2022/02/06 10:35:43;;;;;;;;;;;21.30;33.20;;;;;;476163;250;2128;-39
2022/02/06 10:37:44;;;;;;;;;;;21.30;33.20;;;;;;475892;250;1163;-39
2022/02/06 10:39:45;;;;;;;;;;;21.30;33.20;;;;;;475794;250;1085;-39
2022/02/06 10:41:46;;;;;;;;;;;21.30;33.10;;;;;;476150;250;1193;-39
2022/02/06 10:43:48;;;;;;;;;;;21.30;33.10;;;;;;476207;250;1029;-39
2022/02/06 10:45:49;;;;;;;;;;;21.30;33.10;;;;;;476130;250;1287;-39
2022/02/06 10:47:50;;;;;;;;;;;21.30;33.10;;;;;;475905;250;1092;-39
2022/02/06 10:49:52;;;;;;;;;;;21.30;33.10;;;;;;476204;250;1027;-39
2022/02/06 10:51:53;;;;;;;;;;;21.30;33.10;;;;;;475759;250;1387;-39
2022/02/06 10:53:54;;;;;;;;;;;21.40;33.10;;;;;;475897;250;1216;-39
2022/02/06 10:55:56;;;;;;;;;;;21.40;33.10;;;;;;476164;250;2125;-39
2022/02/06 10:57:57;;;;;;;;;;;21.40;33.10;;;;;;475768;250;1211;-39
2022/02/06 11:00:00;;;;;;;;;;;21.40;33.00;;;;;;475766;251;1076;-39
2022/02/06 11:02:00;;;;;;;;;;;21.30;33.00;;;;;;475603;247;2227;-39
2022/02/06 11:04:01;;;;;;;;;;;21.40;33.00;;;;;;476162;250;987;-39
2022/02/06 11:06:12;;;;;;;;;;;21.40;33.00;;;;;;475688;251;1233;-39
2022/02/06 11:08:10;;;;;;;;;;;21.40;33.00;;;;;;475559;250;2388;-39
2022/02/06 11:10:11;;;;;;;;;;;21.30;33.00;;;;;;476078;250;1227;-39
2022/02/06 11:12:12;;;;;;;;;;;21.30;33.00;;;;;;476051;250;1476;-39
2022/02/06 11:14:14;;;;;;;;;;;21.40;33.10;;;;;;475915;250;1126;-39
2022/02/06 11:16:15;;;;;;;;;;;21.40;33.00;;;;;;475976;250;2199;-39
2022/02/06 11:18:19;;;;;;;;;;;21.40;33.00;;;;;;475950;250;1077;-39
2022/02/06 11:20:18;;;;;;;;;;;21.30;33.00;;;;;;475903;250;2165;-39
2022/02/06 11:22:20;;;;;;;;;;;21.40;33.00;;;;;;475754;250;1338;-39
2022/02/06 11:24:20;;;;;;;;;;;21.40;33.00;;;;;;475668;250;2339;-39
2022/02/06 11:26:22;;;;;;;;;;;21.30;32.90;;;;;;475646;251;1325;-39
2022/02/06 11:28:24;;;;;;;;;;;21.30;32.90;;;;;;476027;250;1052;-39
2022/02/06 11:30:25;;;;;;;;;;;21.30;32.90;;;;;;476033;250;1069;-39
2022/02/06 11:32:27;;;;;;;;;;;21.30;32.90;;;;;;475598;251;1464;-39
2022/02/06 11:34:28;;;;;;;;;;;21.40;33.00;;;;;;475962;250;1084;-39
2022/02/06 11:43:51;;;;;;;;;;;21.30;33.00;;;;;;475812;250;1140;-39
2022/02/06 11:45:49;;;;;;;;;;;21.30;33.00;;;;;;475836;250;2333;-39
2022/02/06 11:47:50;;;;;;;;;;;21.30;32.90;;;;;;475654;251;1262;-39
2022/02/06 11:49:52;;;;;;;;;;;21.30;32.90;;;;;;476180;250;1059;-39
2022/02/06 11:51:53;;;;;;;;;;;21.30;32.90;;;;;;476114;250;1245;-39
2022/02/06 11:53:54;;;;;;;;;;;21.30;33.00;;;;;;476058;250;1360;-39
2022/02/06 11:55:57;;;;;;;;;;;21.30;32.90;;;;;;475966;250;2117;-39
2022/02/06 11:57:57;;;;;;;;;;;21.40;33.00;;;;;;475607;251;2110;-39
2022/02/06 11:59:58;;;;;;;;;;;21.40;32.90;;;;;;475742;251;1067;-39
2022/02/06 12:01:59;;;;;;;;;;;21.30;32.80;;;;;;475756;250;1568;-39
2022/02/06 12:04:01;;;;;;;;;;;21.30;32.90;;;;;;475888;250;1047;-39
2022/02/06 12:06:02;;;;;;;;;;;21.30;32.90;;;;;;475961;250;1368;-39
2022/02/06 12:08:04;;;;;;;;;;;21.30;32.80;;;;;;476087;250;1210;-39
2022/02/06 12:10:05;;;;;;;;;;;21.30;32.80;;;;;;475713;251;1232;-39
2022/02/06 12:12:07;;;;;;;;;;;21.40;32.80;;;;;;475562;251;1197;-39
2022/02/06 12:14:08;;;;;;;;;;;21.40;32.80;;;;;;475731;251;1068;-39
2022/02/06 12:16:09;;;;;;;;;;;21.40;32.80;;;;;;475612;251;2188;-39
2022/02/06 12:18:13;;;;;;;;;;;21.40;32.70;;;;;;475940;250;1205;-39
2022/02/06 12:20:12;;;;;;;;;;;21.40;32.70;;;;;;475600;250;2211;-39
2022/02/06 12:22:13;;;;;;;;;;;21.40;32.70;;;;;;475761;250;1191;-39
2022/02/06 12:24:15;;;;;;;;;;;21.40;32.80;;;;;;475899;250;1222;-39
2022/02/06 12:26:16;;;;;;;;;;;21.40;32.80;;;;;;476157;250;1156;-39
2022/02/06 12:28:19;;;;;;;;;;;21.40;32.80;;;;;;475739;250;1321;-39
2022/02/06 12:30:19;;;;;;;;;;;21.40;32.80;;;;;;475653;251;1936;-39
2022/02/06 12:32:20;;;;;;;;;;;21.40;32.80;;;;;;475744;250;1226;-39
2022/02/06 12:34:21;;;;;;;;;;;21.40;32.80;;;;;;476146;250;1216;-39
2022/02/06 12:38:44;;;;;;;;;;;21.40;32.80;;;;;;475967;250;1248;-39
2022/02/06 12:40:43;;;;;;;;;;;21.40;32.70;;;;;;475718;250;2198;-39
2022/02/06 12:42:45;;;;;;;;;;;21.40;32.80;;;;;;475943;250;1120;-39
2022/02/06 12:44:46;;;;;;;;;;;21.40;32.70;;;;;;476158;250;1118;-39
2022/02/06 12:46:47;;;;;;;;;;;21.40;32.80;;;;;;475993;250;1390;-39
2022/02/06 12:48:48;;;;;;;;;;;21.40;32.80;;;;;;476166;250;1074;-39
2022/02/06 12:50:51;;;;;;;;;;;21.40;32.80;;;;;;475746;251;1371;-39
2022/02/06 12:52:51;;;;;;;;;;;21.40;32.70;;;;;;475841;250;2310;-39
2022/02/06 12:54:52;;;;;;;;;;;21.40;32.70;;;;;;475789;251;1189;-39
2022/02/06 12:56:54;;;;;;;;;;;21.40;32.70;;;;;;475968;250;2125;-39
2022/02/06 12:58:55;;;;;;;;;;;21.40;32.80;;;;;;475777;250;1161;-39
2022/02/06 13:00:57;;;;;;;;;;;21.40;32.70;;;;;;475643;250;1270;-39
2022/02/06 13:02:58;;;;;;;;;;;21.40;32.80;;;;;;475717;250;2067;-39
2022/02/06 13:04:59;;;;;;;;;;;21.40;32.90;;;;;;475959;250;1185;-39
2022/02/06 13:07:02;;;;;;;;;;;21.30;32.80;;;;;;475789;250;1184;-39
2022/02/06 13:09:04;;;;;;;;;;;21.40;32.80;;;;;;475993;250;1867;-39
2022/02/06 13:11:06;;;;;;;;;;;21.40;32.70;;;;;;475667;250;2349;-39
2022/02/06 13:13:05;;;;;;;;;;;21.40;32.80;;;;;;475529;251;1835;-39
2022/02/06 13:15:36;;;;;;;;;;;21.40;32.80;;;;;;475845;250;1365;-39
2022/02/06 13:17:32;;;;;;;;;;;21.40;32.70;;;;;;474616;250;2122;-39
2022/02/06 13:19:43;;;;;;;;;;;21.40;32.70;;;;;;475499;250;2242;-39
2022/02/06 13:21:47;;;;;;;;;;;21.40;32.80;;;;;;475137;250;2228;-39
2022/02/06 13:23:48;;;;;;;;;;;21.40;32.70;;;;;;475484;250;2225;-40
2022/02/06 13:25:56;;;;;;;;;;;21.40;32.70;;;;;;475469;250;2206;-39
2022/02/06 13:28:07;;;;;;;;;;;21.40;32.70;;;;;;475273;250;2120;-39
2022/02/06 13:30:07;;;;;;;;;;;21.40;32.70;;;;;;475180;250;2173;-39